Time,TemperatureF,DewpointF,PressureIn,WindDirection,WindDirectionDegrees,WindSpeedMPH,WindSpeedGustMPH,Humidity,HourlyPrecipIn,Conditions,Clouds,dailyrainin,SoftwareType,DateUTC
2013-09-11 00:04:00,74.1,67.9,30.04,NNE,28,6.0,6.0,81,0.00,,,0.00,VWS V14.01,2013-09-11 10:04:00,
2013-09-11 00:09:00,74.2,67.6,30.04,NNE,16,9.0,9.0,80,0.00,,,0.00,VWS V14.01,2013-09-11 10:09:00,
2013-09-11 00:14:00,74.4,67.8,30.04,North,359,9.0,11.0,80,0.00,,,0.00,VWS V14.01,2013-09-11 10:14:00,
2013-09-11 00:19:00,74.4,68.2,30.04,NNE,21,6.0,12.0,81,0.00,,,0.00,VWS V14.01,2013-09-11 10:19:00,
2013-09-11 00:24:00,74.3,68.1,30.04,NNW,345,5.0,7.0,81,0.00,,,0.00,VWS V14.01,2013-09-11 10:24:00,
2013-09-11 00:29:00,74.2,68.4,30.03,NNE,28,11.0,12.0,82,0.00,,,0.00,VWS V14.01,2013-09-11 10:29:00,
2013-09-11 00:34:00,74.2,68.4,30.04,North,11,8.0,8.0,82,0.00,,,0.00,VWS V14.01,2013-09-11 10:34:00,
2013-09-11 00:39:00,74.3,68.1,30.03,NNE,17,12.0,12.0,81,0.00,,,0.00,VWS V14.01,2013-09-11 10:39:00,
2013-09-11 00:45:00,74.4,68.2,30.03,North,5,9.0,11.0,81,0.00,,,0.00,VWS V14.01,2013-09-11 10:45:00,
2013-09-11 00:50:00,74.3,68.4,30.03,NNE,24,12.0,12.0,82,0.00,,,0.00,VWS V14.01,2013-09-11 10:50:00,
2013-09-11 00:55:00,74.2,68.7,30.03,NNE,26,6.0,7.0,83,0.00,,,0.00,VWS V14.01,2013-09-11 10:55:00,
2013-09-11 01:00:00,74.0,68.9,30.03,North,5,4.0,6.0,84,0.00,,,0.00,VWS V14.01,2013-09-11 11:00:00,
2013-09-11 01:05:00,74.0,68.9,30.02,North,9,10.0,12.0,84,0.00,,,0.00,VWS V14.01,2013-09-11 11:05:00,
2013-09-11 01:10:00,74.2,68.4,30.02,NNE,15,9.0,11.0,82,0.00,,,0.00,VWS V14.01,2013-09-11 11:10:00,
2013-09-11 01:15:00,74.3,69.2,30.02,NNE,23,13.0,13.0,84,0.00,,,0.00,VWS V14.01,2013-09-11 11:15:00,
2013-09-11 01:20:00,74.2,69.1,30.02,NNE,32,8.0,8.0,84,0.00,,,0.00,VWS V14.01,2013-09-11 11:20:00,
2013-09-11 01:25:00,74.2,69.1,30.02,NNE,12,6.0,6.0,84,0.00,,,0.00,VWS V14.01,2013-09-11 11:25:00,
2013-09-11 01:31:00,74.2,69.1,30.02,NE,45,4.0,4.0,84,0.00,,,0.00,VWS V14.01,2013-09-11 11:31:00,
2013-09-11 01:36:00,74.2,69.1,30.01,NE,38,7.0,7.0,84,0.00,,,0.00,VWS V14.01,2013-09-11 11:36:00,
2013-09-11 01:41:00,74.3,69.5,30.01,NNE,27,8.0,8.0,85,0.00,,,0.00,VWS V14.01,2013-09-11 11:41:00,
2013-09-11 01:46:00,74.2,69.4,30.01,NE,50,9.0,9.0,85,0.00,,,0.00,VWS V14.01,2013-09-11 11:46:00,
2013-09-11 01:51:00,74.4,67.8,30.01,NE,52,8.0,11.0,80,0.00,,,0.00,VWS V14.01,2013-09-11 11:51:00,
2013-09-11 01:56:00,74.5,68.3,30.01,NE,42,3.0,3.0,81,0.00,,,0.00,VWS V14.01,2013-09-11 11:56:00,
2013-09-11 02:01:00,74.4,67.8,30.01,NNE,12,7.0,7.0,80,0.00,,,0.00,VWS V14.01,2013-09-11 12:01:00,
2013-09-11 02:06:00,74.2,68.0,30.01,East,90,11.0,12.0,81,0.00,,,0.00,VWS V14.01,2013-09-11 12:06:00,
2013-09-11 02:11:00,74.1,68.3,30.01,NNE,26,3.0,4.0,82,0.00,,,0.00,VWS V14.01,2013-09-11 12:11:00,
2013-09-11 02:16:00,74.1,69.0,30.01,North,359,6.0,7.0,84,0.00,,,0.00,VWS V14.01,2013-09-11 12:16:00,
2013-09-11 02:21:00,74.0,69.2,30.01,NNE,33,8.0,9.0,85,0.00,,,0.00,VWS V14.01,2013-09-11 12:21:00,
2013-09-11 02:27:00,73.9,69.1,30.01,NE,51,8.0,8.0,85,0.00,,,0.00,VWS V14.01,2013-09-11 12:27:00,
2013-09-11 02:32:00,73.9,69.4,30.01,East,97,2.0,3.0,86,0.00,,,0.00,VWS V14.01,2013-09-11 12:32:00,
2013-09-11 02:37:00,73.9,69.4,30.01,ENE,59,8.0,8.0,86,0.00,,,0.00,VWS V14.01,2013-09-11 12:37:00,
2013-09-11 02:42:00,74.0,69.9,30.01,ENE,58,6.0,6.0,87,0.00,,,0.00,VWS V14.01,2013-09-11 12:42:00,
2013-09-11 02:47:00,73.9,69.8,30.01,NE,45,1.0,3.0,87,0.00,,,0.00,VWS V14.01,2013-09-11 12:47:00,
2013-09-11 02:52:00,73.8,69.7,30.01,East,90,7.0,7.0,87,0.00,,,0.00,VWS V14.01,2013-09-11 12:52:00,
2013-09-11 02:57:00,73.5,69.4,30.01,NE,45,4.0,7.0,87,0.00,,,0.00,VWS V14.01,2013-09-11 12:57:00,
2013-09-11 03:02:00,73.4,69.0,30.01,NE,46,3.0,3.0,86,0.00,,,0.00,VWS V14.01,2013-09-11 13:02:00,
2013-09-11 03:07:00,73.3,68.2,30.01,NE,40,8.0,8.0,84,0.00,,,0.00,VWS V14.01,2013-09-11 13:07:00,
2013-09-11 03:12:00,73.4,68.3,30.01,North,9,9.0,9.0,84,0.00,,,0.00,VWS V14.01,2013-09-11 13:12:00,
2013-09-11 03:17:00,73.5,68.4,30.01,North,9,8.0,8.0,84,0.00,,,0.00,VWS V14.01,2013-09-11 13:17:00,
2013-09-11 03:22:00,73.7,68.2,30.00,NNE,25,6.0,6.0,83,0.00,,,0.00,VWS V14.01,2013-09-11 13:22:00,
2013-09-11 03:27:00,73.7,68.2,30.00,NE,46,2.0,3.0,83,0.00,,,0.00,VWS V14.01,2013-09-11 13:27:00,
2013-09-11 03:32:00,73.6,68.5,30.00,NE,44,6.0,7.0,84,0.00,,,0.00,VWS V14.01,2013-09-11 13:32:00,
2013-09-11 03:38:00,73.4,68.6,30.00,NNE,28,5.0,5.0,85,0.00,,,0.00,VWS V14.01,2013-09-11 13:38:00,
2013-09-11 03:43:00,73.4,68.6,30.00,NE,48,4.0,5.0,85,0.00,,,0.00,VWS V14.01,2013-09-11 13:43:00,
2013-09-11 03:48:00,73.3,68.9,30.00,NE,34,4.0,4.0,86,0.00,,,0.00,VWS V14.01,2013-09-11 13:48:00,
2013-09-11 03:53:00,73.3,68.5,30.00,NNE,26,7.0,8.0,85,0.00,,,0.00,VWS V14.01,2013-09-11 13:53:00,
2013-09-11 03:58:00,73.4,68.6,30.00,NNE,29,6.0,6.0,85,0.00,,,0.00,VWS V14.01,2013-09-11 13:58:00,
2013-09-11 04:08:00,73.5,68.7,30.00,NNE,22,13.0,13.0,85,0.00,,,0.00,VWS V14.01,2013-09-11 14:08:00,
2013-09-11 04:13:00,73.5,68.7,30.00,ENE,64,2.0,3.0,85,0.00,,,0.00,VWS V14.01,2013-09-11 14:13:00,
2013-09-11 04:18:00,73.4,68.6,30.00,NNE,18,7.0,7.0,85,0.00,,,0.00,VWS V14.01,2013-09-11 14:18:00,
2013-09-11 04:24:00,73.5,68.7,30.00,East,98,7.0,7.0,85,0.00,,,0.00,VWS V14.01,2013-09-11 14:24:00,
2013-09-11 04:29:00,73.2,68.4,30.00,NE,47,5.0,6.0,85,0.00,,,0.00,VWS V14.01,2013-09-11 14:29:00,
2013-09-11 04:34:00,73.4,68.3,30.00,NNE,33,6.0,6.0,84,0.00,,,0.00,VWS V14.01,2013-09-11 14:34:00,
2013-09-11 04:39:00,73.5,68.0,30.00,East,79,7.0,7.0,83,0.00,,,0.00,VWS V14.01,2013-09-11 14:39:00,
2013-09-11 04:44:00,73.6,67.4,30.00,East,101,6.0,9.0,81,0.00,,,0.00,VWS V14.01,2013-09-11 14:44:00,
2013-09-11 04:49:00,73.8,67.6,30.00,NE,36,4.0,7.0,81,0.00,,,0.00,VWS V14.01,2013-09-11 14:49:00,
2013-09-11 04:54:00,73.9,67.0,30.00,NNE,29,9.0,9.0,79,0.00,,,0.00,VWS V14.01,2013-09-11 14:54:00,
2013-09-11 04:59:00,74.0,67.1,30.01,ENE,68,11.0,11.0,79,0.00,,,0.00,VWS V14.01,2013-09-11 14:59:00,
2013-09-11 05:05:00,74.0,68.2,30.01,ENE,68,8.0,10.0,82,0.00,,,0.00,VWS V14.01,2013-09-11 15:05:00,
2013-09-11 05:10:00,73.7,68.2,30.01,ENE,64,12.0,12.0,83,0.00,,,0.00,VWS V14.01,2013-09-11 15:10:00,
2013-09-11 05:15:00,73.7,68.2,30.01,NE,56,5.0,6.0,83,0.00,,,0.00,VWS V14.01,2013-09-11 15:15:00,
2013-09-11 05:20:00,73.7,68.6,30.01,ENE,59,5.0,5.0,84,0.00,,,0.00,VWS V14.01,2013-09-11 15:20:00,
2013-09-11 05:25:00,73.6,68.1,30.01,NE,34,4.0,10.0,83,0.00,,,0.00,VWS V14.01,2013-09-11 15:25:00,
2013-09-11 05:30:00,73.7,68.6,30.01,NE,40,8.0,8.0,84,0.00,,,0.00,VWS V14.01,2013-09-11 15:30:00,
2013-09-11 05:35:00,73.6,68.1,30.01,NNE,30,7.0,7.0,83,0.00,,,0.00,VWS V14.01,2013-09-11 15:35:00,
2013-09-11 05:40:00,73.6,68.1,30.01,NE,45,4.0,5.0,83,0.00,,,0.00,VWS V14.01,2013-09-11 15:40:00,
2013-09-11 05:46:00,73.7,68.2,30.02,NE,42,10.0,10.0,83,0.00,,,0.00,VWS V14.01,2013-09-11 15:46:00,
2013-09-11 05:51:00,73.7,67.9,30.02,NNE,17,8.0,8.0,82,0.00,,,0.00,VWS V14.01,2013-09-11 15:51:00,
2013-09-11 05:56:00,73.8,68.7,30.02,NNE,33,4.0,4.0,84,0.00,,,0.00,VWS V14.01,2013-09-11 15:56:00,
2013-09-11 06:01:00,73.7,68.2,30.02,NE,44,6.0,7.0,83,0.00,,,0.00,VWS V14.01,2013-09-11 16:01:00,
2013-09-11 06:06:00,73.6,68.1,30.02,North,9,6.0,7.0,83,0.00,,,0.00,VWS V14.01,2013-09-11 16:06:00,
2013-09-11 06:11:00,73.6,68.5,30.02,ENE,60,4.0,7.0,84,0.00,,,0.00,VWS V14.01,2013-09-11 16:11:00,
2013-09-11 06:16:00,73.6,68.1,30.03,NNE,17,12.0,14.0,83,0.00,,,0.00,VWS V14.01,2013-09-11 16:16:00,
2013-09-11 06:21:00,73.7,68.2,30.03,NE,38,7.0,10.0,83,0.00,,,0.00,VWS V14.01,2013-09-11 16:21:00,
2013-09-11 06:26:00,73.7,67.9,30.03,NNE,24,4.0,5.0,82,0.00,,,0.00,VWS V14.01,2013-09-11 16:26:00,
2013-09-11 06:31:00,74.2,68.0,30.03,NNE,28,8.0,10.0,81,0.00,,,0.00,VWS V14.01,2013-09-11 16:31:00,
2013-09-11 06:36:00,74.4,68.2,30.03,NNE,16,6.0,10.0,81,0.00,,,0.00,VWS V14.01,2013-09-11 16:36:00,
2013-09-11 06:42:00,74.7,68.1,30.03,North,9,6.0,7.0,80,0.00,,,0.00,VWS V14.01,2013-09-11 16:42:00,
2013-09-11 06:47:00,74.9,67.6,30.03,NNE,21,11.0,12.0,78,0.00,,,0.00,VWS V14.01,2013-09-11 16:47:00,
2013-09-11 06:52:00,75.0,68.1,30.04,NNE,24,7.0,7.0,79,0.00,,,0.00,VWS V14.01,2013-09-11 16:52:00,
2013-09-11 06:57:00,75.2,68.2,30.04,NNE,19,5.0,7.0,79,0.00,,,0.00,VWS V14.01,2013-09-11 16:57:00,
2013-09-11 07:02:00,75.2,67.9,30.04,NE,40,4.0,6.0,78,0.00,,,0.00,VWS V14.01,2013-09-11 17:02:00,
2013-09-11 07:07:00,75.4,67.7,30.04,NNE,16,7.0,8.0,77,0.00,,,0.00,VWS V14.01,2013-09-11 17:07:00,
2013-09-11 07:12:00,75.5,68.2,30.04,NE,37,7.0,10.0,78,0.00,,,0.00,VWS V14.01,2013-09-11 17:12:00,
2013-09-11 07:17:00,75.3,68.3,30.04,NNE,33,7.0,7.0,79,0.00,,,0.00,VWS V14.01,2013-09-11 17:17:00,
2013-09-11 07:22:00,75.4,68.4,30.05,NE,42,1.0,2.0,79,0.00,,,0.00,VWS V14.01,2013-09-11 17:22:00,
2013-09-11 07:27:00,75.7,69.1,30.05,NE,56,5.0,5.0,80,0.00,,,0.00,VWS V14.01,2013-09-11 17:27:00,
2013-09-11 07:32:00,75.9,69.7,30.05,East,98,5.0,6.0,81,0.00,,,0.00,VWS V14.01,2013-09-11 17:32:00,
2013-09-11 07:38:00,75.6,69.0,30.05,NNE,21,4.0,11.0,80,0.00,,,0.00,VWS V14.01,2013-09-11 17:38:00,
2013-09-11 07:43:00,75.6,69.4,30.05,NNE,23,8.0,9.0,81,0.00,,,0.00,VWS V14.01,2013-09-11 17:43:00,
2013-09-11 07:48:00,75.3,69.4,30.05,NE,41,8.0,9.0,82,0.00,,,0.00,VWS V14.01,2013-09-11 17:48:00,
2013-09-11 07:53:00,75.2,69.3,30.06,NE,45,8.0,9.0,82,0.00,,,0.00,VWS V14.01,2013-09-11 17:53:00,
2013-09-11 07:58:00,75.3,69.4,30.06,NE,38,9.0,10.0,82,0.00,,,0.00,VWS V14.01,2013-09-11 17:58:00,
2013-09-11 08:03:00,75.7,69.8,30.06,NE,47,8.0,9.0,82,0.00,,,0.00,VWS V14.01,2013-09-11 18:03:00,
2013-09-11 08:08:00,76.0,69.4,30.06,NNE,25,8.0,8.0,80,0.00,,,0.00,VWS V14.01,2013-09-11 18:08:00,
2013-09-11 08:13:00,75.9,69.7,30.06,NNE,27,8.0,14.0,81,0.00,,,0.00,VWS V14.01,2013-09-11 18:13:00,
2013-09-11 08:18:00,76.2,69.9,30.06,NE,50,8.0,8.0,81,0.00,,,0.00,VWS V14.01,2013-09-11 18:18:00,
2013-09-11 08:23:00,76.3,70.4,30.06,East,90,10.0,11.0,82,0.00,,,0.00,VWS V14.01,2013-09-11 18:23:00,
2013-09-11 08:29:00,75.8,69.9,30.06,NNE,19,5.0,7.0,82,0.00,,,0.00,VWS V14.01,2013-09-11 18:29:00,
2013-09-11 08:34:00,75.7,69.8,30.06,East,93,3.0,7.0,82,0.00,,,0.00,VWS V14.01,2013-09-11 18:34:00,
2013-09-11 08:39:00,75.6,70.1,30.06,ENE,64,11.0,13.0,83,0.00,,,0.00,VWS V14.01,2013-09-11 18:39:00,
2013-09-11 08:44:00,76.1,70.9,30.06,ENE,67,9.0,9.0,84,0.00,,,0.00,VWS V14.01,2013-09-11 18:44:00,
2013-09-11 08:49:00,76.4,70.9,30.07,NE,46,8.0,9.0,83,0.00,,,0.00,VWS V14.01,2013-09-11 18:49:00,
2013-09-11 08:54:00,76.4,70.5,30.07,East,92,8.0,9.0,82,0.00,,,0.00,VWS V14.01,2013-09-11 18:54:00,
2013-09-11 08:59:00,76.1,70.2,30.07,East,95,10.0,12.0,82,0.00,,,0.00,VWS V14.01,2013-09-11 18:59:00,
2013-09-11 09:04:00,76.0,70.1,30.07,ENE,64,4.0,6.0,82,0.00,,,0.00,VWS V14.01,2013-09-11 19:04:00,
2013-09-11 09:10:00,76.0,69.8,30.07,NE,40,6.0,6.0,81,0.00,,,0.00,VWS V14.01,2013-09-11 19:10:00,
2013-09-11 09:15:00,75.9,70.0,30.07,ENE,68,10.0,10.0,82,0.00,,,0.00,VWS V14.01,2013-09-11 19:15:00,
2013-09-11 09:20:00,76.6,70.0,30.07,East,94,12.0,12.0,80,0.00,,,0.00,VWS V14.01,2013-09-11 19:20:00,
2013-09-11 10:00:00,77.7,71.0,30.08,East,90,11.0,19.0,80,0.00,,,0.00,VWS V14.01,2013-09-11 20:00:00,
2013-09-11 10:21:00,76.8,70.9,30.07,East,95,12.0,12.0,82,0.00,,,0.00,VWS V14.01,2013-09-11 20:21:00,
2013-09-11 10:26:00,76.7,71.2,30.07,NE,54,5.0,5.0,83,0.00,,,0.00,VWS V14.01,2013-09-11 20:26:00,
2013-09-11 10:31:00,76.6,70.7,30.07,NE,40,8.0,10.0,82,0.00,,,0.00,VWS V14.01,2013-09-11 20:31:00,
2013-09-11 10:36:00,76.6,71.1,30.07,NE,49,7.0,7.0,83,0.00,,,0.00,VWS V14.01,2013-09-11 20:36:00,
2013-09-11 10:41:00,76.6,71.1,30.07,East,79,6.0,6.0,83,0.00,,,0.00,VWS V14.01,2013-09-11 20:41:00,
2013-09-11 10:46:00,76.4,70.9,30.07,ENE,64,10.0,10.0,83,0.00,,,0.00,VWS V14.01,2013-09-11 20:46:00,
2013-09-11 10:51:00,76.2,70.7,30.07,ENE,60,6.0,7.0,83,0.00,,,0.00,VWS V14.01,2013-09-11 20:51:00,
2013-09-11 10:56:00,76.4,70.5,30.07,East,93,9.0,10.0,82,0.00,,,0.00,VWS V14.01,2013-09-11 20:56:00,
2013-09-11 11:02:00,76.4,70.1,30.07,ENE,60,10.0,10.0,81,0.00,,,0.00,VWS V14.01,2013-09-11 21:02:00,
2013-09-11 11:07:00,76.3,70.1,30.07,NNE,17,9.0,9.0,81,0.00,,,0.00,VWS V14.01,2013-09-11 21:07:00,
2013-09-11 11:12:00,76.3,69.3,30.07,East,95,8.0,8.0,79,0.00,,,0.00,VWS V14.01,2013-09-11 21:12:00,
2013-09-11 11:17:00,76.3,68.9,30.07,East,89,8.0,9.0,78,0.00,,,0.00,VWS V14.01,2013-09-11 21:17:00,
2013-09-11 11:22:00,76.3,68.9,30.07,ENE,70,9.0,11.0,78,0.00,,,0.00,VWS V14.01,2013-09-11 21:22:00,
2013-09-11 11:27:00,76.1,69.1,30.07,ENE,64,8.0,9.0,79,0.00,,,0.00,VWS V14.01,2013-09-11 21:27:00,
2013-09-11 11:32:00,76.1,69.1,30.07,NE,44,5.0,5.0,79,0.00,,,0.00,VWS V14.01,2013-09-11 21:32:00,
2013-09-11 11:37:00,76.3,69.3,30.06,NE,53,10.0,11.0,79,0.00,,,0.00,VWS V14.01,2013-09-11 21:37:00,
2013-09-11 11:42:00,76.7,70.1,30.06,NNE,23,8.0,11.0,80,0.00,,,0.00,VWS V14.01,2013-09-11 21:42:00,
2013-09-11 11:47:00,77.3,70.3,30.06,East,95,9.0,13.0,79,0.00,,,0.00,VWS V14.01,2013-09-11 21:47:00,
2013-09-11 11:52:00,77.4,70.0,30.06,East,91,10.0,15.0,78,0.00,,,0.00,VWS V14.01,2013-09-11 21:52:00,
2013-09-11 11:57:00,77.2,70.2,30.06,ESE,102,12.0,13.0,79,0.00,,,0.00,VWS V14.01,2013-09-11 21:57:00,
2013-09-11 12:02:00,77.3,70.7,30.05,East,97,10.0,12.0,80,0.00,,,0.00,VWS V14.01,2013-09-11 22:02:00,
2013-09-11 12:07:00,76.9,70.6,30.06,East,90,9.0,14.0,81,0.00,,,0.00,VWS V14.01,2013-09-11 22:07:00,
2013-09-11 12:12:00,76.7,70.8,30.05,East,81,12.0,13.0,82,0.00,,,0.00,VWS V14.01,2013-09-11 22:12:00,
2013-09-11 12:17:00,76.2,70.7,30.05,ENE,62,6.0,9.0,83,0.00,,,0.00,VWS V14.01,2013-09-11 22:17:00,
2013-09-11 12:22:00,75.9,70.7,30.05,East,85,7.0,8.0,84,0.00,,,0.00,VWS V14.01,2013-09-11 22:22:00,
2013-09-11 12:27:00,75.8,71.0,30.05,NE,53,7.0,8.0,85,0.00,,,0.00,VWS V14.01,2013-09-11 22:27:00,
2013-09-11 12:32:00,75.5,70.7,30.05,ENE,70,3.0,5.0,85,0.00,,,0.00,VWS V14.01,2013-09-11 22:32:00,
2013-09-11 12:37:00,75.5,70.3,30.04,East,83,5.0,5.0,84,0.00,,,0.00,VWS V14.01,2013-09-11 22:37:00,
2013-09-11 12:42:00,75.6,70.1,30.04,ENE,61,8.0,9.0,83,0.00,,,0.00,VWS V14.01,2013-09-11 22:42:00,
2013-09-11 12:47:00,76.0,70.1,30.04,East,87,3.0,3.0,82,0.00,,,0.00,VWS V14.01,2013-09-11 22:47:00,
2013-09-11 12:52:00,76.4,69.8,30.03,NE,52,5.0,7.0,80,0.00,,,0.00,VWS V14.01,2013-09-11 22:52:00,
2013-09-11 12:57:00,76.5,69.9,30.03,NE,45,4.0,5.0,80,0.00,,,0.00,VWS V14.01,2013-09-11 22:57:00,
2013-09-11 13:02:00,77.1,70.5,30.03,NE,46,8.0,9.0,80,0.00,,,0.00,VWS V14.01,2013-09-11 23:02:00,
2013-09-11 13:08:00,77.1,70.5,30.03,East,90,7.0,7.0,80,0.00,,,0.00,VWS V14.01,2013-09-11 23:08:00,
2013-09-11 13:13:00,77.2,70.9,30.02,ESE,108,8.0,11.0,81,0.00,,,0.00,VWS V14.01,2013-09-11 23:13:00,
2013-09-11 13:18:00,77.7,70.7,30.02,NE,37,11.0,11.0,79,0.00,,,0.00,VWS V14.01,2013-09-11 23:18:00,
2013-09-11 13:23:00,77.9,70.5,30.02,East,83,8.0,9.0,78,0.00,,,0.00,VWS V14.01,2013-09-11 23:23:00,
2013-09-11 13:28:00,78.1,70.3,30.01,ENE,61,10.0,11.0,77,0.00,,,0.00,VWS V14.01,2013-09-11 23:28:00,
2013-09-11 13:33:00,78.2,71.2,30.01,ESE,104,11.0,12.0,79,0.00,,,0.00,VWS V14.01,2013-09-11 23:33:00,
2013-09-11 13:38:00,78.5,69.9,30.01,NE,41,11.0,18.0,75,0.00,,,0.00,VWS V14.01,2013-09-11 23:38:00,
2013-09-11 13:43:00,78.4,69.0,30.01,NE,35,10.0,10.0,73,0.00,,,0.00,VWS V14.01,2013-09-11 23:43:00,
2013-09-11 13:48:00,78.4,69.0,30.00,NNE,24,11.0,11.0,73,0.00,,,0.00,VWS V14.01,2013-09-11 23:48:00,
2013-09-11 13:53:00,78.5,69.5,30.00,NNE,16,14.0,17.0,74,0.00,,,0.00,VWS V14.01,2013-09-11 23:53:00,
2013-09-11 13:58:00,78.7,69.3,30.00,East,80,10.0,13.0,73,0.00,,,0.00,VWS V14.01,2013-09-11 23:58:00,
2013-09-11 14:03:00,78.7,68.9,30.00,ENE,71,8.0,10.0,72,0.00,,,0.00,VWS V14.01,2013-09-12 00:03:00,
2013-09-11 14:08:00,78.4,69.4,29.99,NE,50,9.0,9.0,74,0.00,,,0.00,VWS V14.01,2013-09-12 00:08:00,
2013-09-11 14:13:00,78.6,70.0,29.99,ENE,58,13.0,13.0,75,0.00,,,0.00,VWS V14.01,2013-09-12 00:13:00,
2013-09-11 14:18:00,78.5,69.5,29.99,NE,38,8.0,8.0,74,0.00,,,0.00,VWS V14.01,2013-09-12 00:18:00,
2013-09-11 14:23:00,78.4,69.8,29.99,ENE,71,9.0,9.0,75,0.00,,,0.00,VWS V14.01,2013-09-12 00:23:00,
2013-09-11 14:28:00,78.7,69.7,29.99,ENE,62,12.0,12.0,74,0.00,,,0.00,VWS V14.01,2013-09-12 00:28:00,
2013-09-11 14:33:00,78.3,68.9,29.99,ENE,61,9.0,9.0,73,0.00,,,0.00,VWS V14.01,2013-09-12 00:33:00,
2013-09-11 14:38:00,78.5,69.1,29.99,ENE,66,11.0,12.0,73,0.00,,,0.00,VWS V14.01,2013-09-12 00:38:00,
2013-09-11 14:43:00,78.8,69.0,29.99,NE,47,13.0,13.0,72,0.00,,,0.00,VWS V14.01,2013-09-12 00:43:00,
2013-09-11 14:48:00,78.4,69.4,29.98,NE,54,14.0,14.0,74,0.00,,,0.00,VWS V14.01,2013-09-12 00:48:00,
2013-09-11 14:53:00,78.3,69.7,29.98,ENE,64,11.0,13.0,75,0.00,,,0.00,VWS V14.01,2013-09-12 00:53:00,
2013-09-11 14:59:00,78.0,69.1,29.98,NE,42,9.0,14.0,74,0.00,,,0.00,VWS V14.01,2013-09-12 00:59:00,
2013-09-11 15:04:00,78.1,69.9,29.98,NE,45,8.0,10.0,76,0.00,,,0.00,VWS V14.01,2013-09-12 01:04:00,
2013-09-11 15:09:00,78.6,70.0,29.98,East,88,15.0,19.0,75,0.00,,,0.00,VWS V14.01,2013-09-12 01:09:00,
2013-09-11 15:14:00,77.6,69.8,29.98,NE,34,15.0,17.0,77,0.00,,,0.00,VWS V14.01,2013-09-12 01:14:00,
2013-09-11 15:19:00,77.1,70.1,29.98,NNE,31,9.0,17.0,79,0.00,,,0.00,VWS V14.01,2013-09-12 01:19:00,
2013-09-11 15:24:00,77.4,70.4,29.99,North,3,11.0,15.0,79,0.00,,,0.00,VWS V14.01,2013-09-12 01:24:00,
2013-09-11 15:29:00,77.5,70.1,29.98,NE,35,13.0,18.0,78,0.00,,,0.00,VWS V14.01,2013-09-12 01:29:00,
2013-09-11 15:34:00,77.5,70.5,29.98,ENE,67,12.0,12.0,79,0.00,,,0.00,VWS V14.01,2013-09-12 01:34:00,
2013-09-11 15:39:00,77.4,70.8,29.98,North,10,16.0,17.0,80,0.00,,,0.00,VWS V14.01,2013-09-12 01:39:00,
2013-09-11 15:44:00,77.4,70.8,29.98,NNE,19,18.0,18.0,80,0.00,,,0.00,VWS V14.01,2013-09-12 01:44:00,
2013-09-11 15:49:00,77.1,70.5,29.98,NNE,29,8.0,11.0,80,0.00,,,0.00,VWS V14.01,2013-09-12 01:49:00,
2013-09-11 15:54:00,77.4,70.8,29.98,NNE,29,9.0,10.0,80,0.00,,,0.00,VWS V14.01,2013-09-12 01:54:00,
2013-09-11 15:59:00,77.2,70.9,29.98,ENE,66,7.0,7.0,81,0.00,,,0.00,VWS V14.01,2013-09-12 01:59:00,
2013-09-11 16:05:00,77.2,71.6,29.98,NNE,32,8.0,13.0,83,0.00,,,0.00,VWS V14.01,2013-09-12 02:05:00,
2013-09-11 16:10:00,76.7,71.5,29.98,NE,56,10.0,10.0,84,0.00,,,0.00,VWS V14.01,2013-09-12 02:10:00,
2013-09-11 16:15:00,76.4,70.5,29.98,NNE,33,5.0,7.0,82,0.00,,,0.00,VWS V14.01,2013-09-12 02:15:00,
2013-09-11 16:20:00,76.5,70.6,29.98,NE,42,8.0,10.0,82,0.00,,,0.00,VWS V14.01,2013-09-12 02:20:00,
2013-09-11 16:25:00,76.3,71.5,29.98,ENE,61,11.0,11.0,85,0.00,,,0.00,VWS V14.01,2013-09-12 02:25:00,
2013-09-11 16:30:00,76.2,71.7,29.98,NE,42,9.0,10.0,86,0.00,,,0.00,VWS V14.01,2013-09-12 02:30:00,
2013-09-11 16:35:00,76.2,71.7,29.98,East,80,8.0,10.0,86,0.00,,,0.00,VWS V14.01,2013-09-12 02:35:00,
2013-09-11 16:40:00,75.8,72.0,29.98,ENE,57,8.0,9.0,88,0.00,,,0.00,VWS V14.01,2013-09-12 02:40:00,
2013-09-11 16:45:00,75.3,71.8,29.98,NE,41,11.0,11.0,89,0.00,,,0.00,VWS V14.01,2013-09-12 02:45:00,
2013-09-11 16:51:00,75.1,71.0,29.98,NNE,30,7.0,10.0,87,0.00,,,0.00,VWS V14.01,2013-09-12 02:51:00,
2013-09-11 16:56:00,75.2,70.7,29.99,NE,48,9.0,11.0,86,0.00,,,0.00,VWS V14.01,2013-09-12 02:56:00,
2013-09-11 17:01:00,75.3,70.8,29.99,NNE,24,11.0,11.0,86,0.00,,,0.00,VWS V14.01,2013-09-12 03:01:00,
2013-09-11 17:06:00,75.3,70.8,29.98,ENE,59,9.0,12.0,86,0.00,,,0.00,VWS V14.01,2013-09-12 03:06:00,
2013-09-11 17:11:00,75.3,70.8,29.98,East,92,6.0,7.0,86,0.00,,,0.00,VWS V14.01,2013-09-12 03:11:00,
2013-09-11 17:16:00,75.3,70.8,29.98,NE,42,4.0,5.0,86,0.00,,,0.00,VWS V14.01,2013-09-12 03:16:00,
2013-09-11 17:21:00,75.4,70.6,29.98,North,356,8.0,9.0,85,0.00,,,0.00,VWS V14.01,2013-09-12 03:21:00,
2013-09-11 17:26:00,75.5,70.7,29.98,ENE,66,9.0,10.0,85,0.00,,,0.00,VWS V14.01,2013-09-12 03:26:00,
2013-09-11 17:31:00,75.5,70.7,29.98,NE,56,5.0,7.0,85,0.00,,,0.00,VWS V14.01,2013-09-12 03:31:00,
2013-09-11 17:37:00,75.5,70.7,29.98,East,89,7.0,7.0,85,0.00,,,0.00,VWS V14.01,2013-09-12 03:37:00,
2013-09-11 17:42:00,75.5,70.7,29.98,NE,46,6.0,6.0,85,0.00,,,0.00,VWS V14.01,2013-09-12 03:42:00,
2013-09-11 17:47:00,75.5,70.7,29.98,NNE,31,11.0,11.0,85,0.00,,,0.00,VWS V14.01,2013-09-12 03:47:00,
2013-09-11 17:52:00,75.5,71.0,29.98,NNE,33,7.0,7.0,86,0.00,,,0.00,VWS V14.01,2013-09-12 03:52:00,
2013-09-11 17:57:00,75.4,70.2,29.98,NNW,336,12.0,12.0,84,0.00,,,0.00,VWS V14.01,2013-09-12 03:57:00,
2013-09-11 18:01:00,75.5,70.3,29.98,NNE,28,1.0,3.0,84,0.00,,,0.00,VWS V14.01,2013-09-12 04:01:00,
2013-09-11 18:02:00,75.5,70.3,29.98,NNE,25,6.0,6.0,84,0.00,,,0.00,VWS V14.01,2013-09-12 04:02:00,
2013-09-11 18:03:00,75.5,70.3,29.99,NNE,28,13.0,13.0,84,0.00,,,0.00,VWS V14.01,2013-09-12 04:03:00,
2013-09-11 18:08:00,75.5,70.3,29.99,NE,56,4.0,8.0,84,0.00,,,0.00,VWS V14.01,2013-09-12 04:08:00,
2013-09-11 18:13:00,75.4,70.6,29.99,NE,45,7.0,7.0,85,0.00,,,0.00,VWS V14.01,2013-09-12 04:13:00,
2013-09-11 18:18:00,75.3,70.5,29.99,NE,49,7.0,8.0,85,0.00,,,0.00,VWS V14.01,2013-09-12 04:18:00,
2013-09-11 18:23:00,75.2,70.4,29.99,NE,42,9.0,11.0,85,0.00,,,0.00,VWS V14.01,2013-09-12 04:23:00,
2013-09-11 18:28:00,75.2,70.4,29.99,NNE,22,12.0,12.0,85,0.00,,,0.00,VWS V14.01,2013-09-12 04:28:00,
2013-09-11 18:33:00,75.2,70.0,29.99,NNE,30,4.0,6.0,84,0.00,,,0.00,VWS V14.01,2013-09-12 04:33:00,
2013-09-11 18:38:00,75.3,70.1,29.99,ENE,58,5.0,10.0,84,0.00,,,0.00,VWS V14.01,2013-09-12 04:38:00,
2013-09-11 18:43:00,75.2,70.4,30.00,NE,51,8.0,11.0,85,0.00,,,0.00,VWS V14.01,2013-09-12 04:43:00,
2013-09-11 18:49:00,74.4,70.6,30.00,NNE,24,11.0,11.0,88,0.00,,,0.00,VWS V14.01,2013-09-12 04:49:00,
2013-09-11 18:54:00,74.0,70.9,30.00,ENE,58,6.0,8.0,90,0.01,,,0.01,VWS V14.01,2013-09-12 04:54:00,
2013-09-11 18:59:00,73.7,71.2,30.00,NE,56,3.0,6.0,92,0.01,,,0.01,VWS V14.01,2013-09-12 04:59:00,
2013-09-11 19:04:00,73.7,71.2,30.00,NE,51,10.0,10.0,92,0.01,,,0.01,VWS V14.01,2013-09-12 05:04:00,
2013-09-11 19:09:00,73.9,71.1,30.00,NNE,18,9.0,9.0,91,0.01,,,0.01,VWS V14.01,2013-09-12 05:09:00,
2013-09-11 19:14:00,74.0,70.9,30.00,NNE,19,8.0,14.0,90,0.01,,,0.01,VWS V14.01,2013-09-12 05:14:00,
2013-09-11 19:19:00,74.2,71.1,30.00,NE,45,7.0,7.0,90,0.01,,,0.01,VWS V14.01,2013-09-12 05:19:00,
2013-09-11 19:24:00,74.2,71.1,30.00,North,10,7.0,8.0,90,0.01,,,0.01,VWS V14.01,2013-09-12 05:24:00,
2013-09-11 19:30:00,74.2,71.1,30.00,NNE,26,5.0,5.0,90,0.01,,,0.01,VWS V14.01,2013-09-12 05:30:00,
2013-09-11 19:35:00,74.1,70.7,30.01,NNE,28,6.0,6.0,89,0.01,,,0.01,VWS V14.01,2013-09-12 05:35:00,
2013-09-11 19:40:00,74.2,70.8,30.01,ENE,64,8.0,8.0,89,0.01,,,0.01,VWS V14.01,2013-09-12 05:40:00,
2013-09-11 19:45:00,74.4,70.9,30.01,NNE,13,8.0,11.0,89,0.01,,,0.01,VWS V14.01,2013-09-12 05:45:00,
2013-09-11 19:50:00,74.5,70.7,30.01,NNE,23,3.0,7.0,88,0.01,,,0.01,VWS V14.01,2013-09-12 05:50:00,
2013-09-11 19:55:00,74.5,70.7,30.01,ENE,60,7.0,7.0,88,0.00,,,0.01,VWS V14.01,2013-09-12 05:55:00,
2013-09-11 20:00:00,74.6,70.8,30.01,NNE,21,8.0,8.0,88,0.00,,,0.01,VWS V14.01,2013-09-12 06:00:00,
2013-09-11 20:05:00,74.7,70.6,30.01,NNE,13,10.0,10.0,87,0.00,,,0.01,VWS V14.01,2013-09-12 06:05:00,
2013-09-11 20:11:00,74.7,70.9,30.02,NE,37,4.0,5.0,88,0.00,,,0.01,VWS V14.01,2013-09-12 06:11:00,
2013-09-11 20:16:00,74.7,71.2,30.02,NE,50,5.0,6.0,89,0.00,,,0.01,VWS V14.01,2013-09-12 06:16:00,
2013-09-11 20:21:00,74.8,71.3,30.02,NNE,16,8.0,9.0,89,0.00,,,0.01,VWS V14.01,2013-09-12 06:21:00,
2013-09-11 20:26:00,74.7,71.2,30.02,NNE,24,7.0,8.0,89,0.00,,,0.01,VWS V14.01,2013-09-12 06:26:00,
2013-09-11 20:31:00,74.6,71.2,30.02,ENE,62,3.0,4.0,89,0.00,,,0.01,VWS V14.01,2013-09-12 06:31:00,
2013-09-11 20:36:00,74.6,71.2,30.02,NE,55,5.0,7.0,89,0.00,,,0.01,VWS V14.01,2013-09-12 06:36:00,
2013-09-11 20:41:00,74.5,71.1,30.02,NNE,18,5.0,8.0,89,0.00,,,0.01,VWS V14.01,2013-09-12 06:41:00,
2013-09-11 20:46:00,74.6,71.2,30.02,NNE,16,5.0,5.0,89,0.00,,,0.01,VWS V14.01,2013-09-12 06:46:00,
2013-09-11 20:51:00,74.6,71.2,30.02,NNE,19,5.0,8.0,89,0.00,,,0.01,VWS V14.01,2013-09-12 06:51:00,
2013-09-11 20:56:00,74.6,71.2,30.02,NNE,23,8.0,8.0,89,0.00,,,0.01,VWS V14.01,2013-09-12 06:56:00,
2013-09-11 21:02:00,74.6,71.2,30.03,NE,40,9.0,9.0,89,0.00,,,0.01,VWS V14.01,2013-09-12 07:02:00,
2013-09-11 21:07:00,74.5,71.1,30.03,NE,52,5.0,5.0,89,0.00,,,0.01,VWS V14.01,2013-09-12 07:07:00,
2013-09-11 21:12:00,74.4,70.6,30.03,NNE,21,4.0,6.0,88,0.00,,,0.01,VWS V14.01,2013-09-12 07:12:00,
2013-09-11 21:17:00,74.5,70.7,30.03,NE,55,8.0,8.0,88,0.00,,,0.01,VWS V14.01,2013-09-12 07:17:00,
2013-09-11 21:22:00,74.4,70.3,30.03,NE,53,5.0,6.0,87,0.00,,,0.01,VWS V14.01,2013-09-12 07:22:00,
2013-09-11 21:27:00,74.4,70.3,30.03,NNE,19,11.0,12.0,87,0.00,,,0.01,VWS V14.01,2013-09-12 07:27:00,
2013-09-11 21:32:00,74.4,70.3,30.02,NE,45,6.0,6.0,87,0.00,,,0.01,VWS V14.01,2013-09-12 07:32:00,
2013-09-11 21:37:00,74.4,70.3,30.02,ENE,66,5.0,6.0,87,0.00,,,0.01,VWS V14.01,2013-09-12 07:37:00,
2013-09-11 21:42:00,74.5,70.4,30.02,NNE,25,7.0,7.0,87,0.00,,,0.01,VWS V14.01,2013-09-12 07:42:00,
2013-09-11 21:48:00,74.4,70.3,30.02,East,100,9.0,9.0,87,0.00,,,0.01,VWS V14.01,2013-09-12 07:48:00,
2013-09-11 21:53:00,74.6,70.5,30.03,NNE,28,11.0,11.0,87,0.00,,,0.01,VWS V14.01,2013-09-12 07:53:00,
2013-09-11 21:58:00,74.6,70.5,30.03,ENE,59,9.0,9.0,87,0.00,,,0.01,VWS V14.01,2013-09-12 07:58:00,
2013-09-11 22:03:00,74.6,70.5,30.03,NNE,29,5.0,8.0,87,0.00,,,0.01,VWS V14.01,2013-09-12 08:03:00,
2013-09-11 22:08:00,74.5,70.4,30.03,NE,52,6.0,7.0,87,0.00,,,0.01,VWS V14.01,2013-09-12 08:08:00,
2013-09-11 22:13:00,74.6,70.5,30.03,NNE,25,5.0,6.0,87,0.00,,,0.01,VWS V14.01,2013-09-12 08:13:00,
2013-09-11 22:18:00,74.6,70.1,30.03,NE,49,4.0,7.0,86,0.00,,,0.01,VWS V14.01,2013-09-12 08:18:00,
2013-09-11 22:23:00,74.5,70.0,30.02,NE,47,6.0,6.0,86,0.00,,,0.01,VWS V14.01,2013-09-12 08:23:00,
2013-09-11 22:28:00,74.3,69.5,30.02,NE,50,4.0,6.0,85,0.00,,,0.01,VWS V14.01,2013-09-12 08:28:00,
2013-09-11 22:33:00,74.1,69.3,30.02,NNE,23,6.0,8.0,85,0.00,,,0.01,VWS V14.01,2013-09-12 08:33:00,
2013-09-11 22:38:00,74.0,69.2,30.02,NNE,31,5.0,5.0,85,0.00,,,0.01,VWS V14.01,2013-09-12 08:38:00,
2013-09-11 22:44:00,73.9,68.8,30.02,NNW,346,5.0,5.0,84,0.00,,,0.01,VWS V14.01,2013-09-12 08:44:00,
2013-09-11 22:49:00,73.9,68.8,30.02,NNE,28,4.0,4.0,84,0.00,,,0.01,VWS V14.01,2013-09-12 08:49:00,
2013-09-11 22:54:00,73.6,68.5,30.02,NNE,12,3.0,3.0,84,0.00,,,0.01,VWS V14.01,2013-09-12 08:54:00,
2013-09-11 22:59:00,73.1,68.3,30.02,NE,40,3.0,3.0,85,0.00,,,0.01,VWS V14.01,2013-09-12 08:59:00,
2013-09-11 23:04:00,73.4,68.3,30.02,NNE,33,3.0,3.0,84,0.00,,,0.01,VWS V14.01,2013-09-12 09:04:00,
2013-09-11 23:09:00,73.5,68.0,30.02,NNE,26,4.0,4.0,83,0.00,,,0.01,VWS V14.01,2013-09-12 09:09:00,
2013-09-11 23:14:00,73.5,68.0,30.02,NNE,22,11.0,11.0,83,0.00,,,0.01,VWS V14.01,2013-09-12 09:14:00,
2013-09-11 23:19:00,73.7,67.5,30.02,NNE,16,5.0,6.0,81,0.00,,,0.01,VWS V14.01,2013-09-12 09:19:00,
2013-09-11 23:24:00,73.7,67.9,30.02,NNE,19,2.0,3.0,82,0.00,,,0.01,VWS V14.01,2013-09-12 09:24:00,
2013-09-11 23:30:00,73.7,67.5,30.02,ENE,61,3.0,3.0,81,0.00,,,0.01,VWS V14.01,2013-09-12 09:30:00,
2013-09-11 23:35:00,73.5,67.3,30.01,NNE,27,5.0,5.0,81,0.00,,,0.01,VWS V14.01,2013-09-12 09:35:00,
2013-09-11 23:40:00,73.3,67.1,30.01,NNE,17,3.0,3.0,81,0.00,,,0.01,VWS V14.01,2013-09-12 09:40:00,
2013-09-11 23:45:00,72.8,67.0,30.01,NNE,24,3.0,3.0,82,0.00,,,0.01,VWS V14.01,2013-09-12 09:45:00,
2013-09-11 23:50:00,72.9,66.7,30.01,NNE,20,5.0,5.0,81,0.00,,,0.01,VWS V14.01,2013-09-12 09:50:00,
2013-09-11 23:55:00,73.2,67.0,30.01,North,353,3.0,5.0,81,0.00,,,0.01,VWS V14.01,2013-09-12 09:55:00,